Aviation Digital Data Service (ADDS)

Output produced by METARs form (0745 UTC 21 September 2018)
found at http://aviationweather.gov/metar/data/
 
METAR text: EYKA 210720Z 16006KT 130V190 CAVOK 20/15 Q1015
Conditions at: EYKA (KAUNAS , LT) observed 0720 UTC 21 September 2018
Temperature: 20.0°C (68°F)
Dewpoint: 15.0°C (59°F) [RH = 73%]
Pressure (altimeter): 29.97 inches Hg (1015.0 mb)
Winds: from the SSE (160 degrees) at 7 MPH (6 knots; 3.1 m/s)
Visibility: 6 or more miles (10+ km)
Ceiling: ceiling and visibility are OK
Clouds: unknown
Weather: no significant weather observed at this time

METAR text: EYKA 210650Z 16006KT 120V180 CAVOK 19/15 Q1015
Conditions at: EYKA (KAUNAS , LT) observed 0650 UTC 21 September 2018
Temperature: 19.0°C (66°F)
Dewpoint: 15.0°C (59°F) [RH = 78%]
Pressure (altimeter): 29.97 inches Hg (1015.0 mb)
Winds: from the SSE (160 degrees) at 7 MPH (6 knots; 3.1 m/s)
Visibility: 6 or more miles (10+ km)
Ceiling: ceiling and visibility are OK
Clouds: unknown
Weather: no significant weather observed at this time

METAR text: EYKA 210620Z 16005KT 130V200 CAVOK 18/15 Q1016
Conditions at: EYKA (KAUNAS , LT) observed 0620 UTC 21 September 2018
Temperature: 18.0°C (64°F)
Dewpoint: 15.0°C (59°F) [RH = 83%]
Pressure (altimeter): 30.00 inches Hg (1016.0 mb)
Winds: from the SSE (160 degrees) at 6 MPH (5 knots; 2.6 m/s)
Visibility: 6 or more miles (10+ km)
Ceiling: ceiling and visibility are OK
Clouds: unknown
Weather: no significant weather observed at this time

METAR text: EYKA 210550Z VRB02KT CAVOK 17/14 Q1016
Conditions at: EYKA (KAUNAS , LT) observed 0550 UTC 21 September 2018
Temperature: 17.0°C (63°F)
Dewpoint: 14.0°C (57°F) [RH = 82%]
Pressure (altimeter): 30.00 inches Hg (1016.0 mb)
Winds: variable direction winds at 2 MPH (2 knots; 1.0 m/s)
Visibility: 6 or more miles (10+ km)
Ceiling: ceiling and visibility are OK
Clouds: unknown
Weather: no significant weather observed at this time